Airport View

Enter AWOS ICAO identifier for current METAR.

ex. KFNL

KCHK 290415Z AUTO 26005KT 10SM CLR 10/04 A3018 RMK AO2 T01010042

29 Sep 2020 04:26

Frequency: 118.175

Phone: 405-574-1016

Other Area AWOS: KRQO - KRCE - KOKC - KOUN

TAF KOKC 282325Z 2900/2924 33015KT P6SM SKC FM290200 28005KT P6SM SKC FM291500 33013KT P6SM SCT250